Time;durP1;ratioP1;P1;durP2;ratioP2;P2;SDS_P1;SDS_P2;PMS_P1;PMS_P2;Temp;Humidity;BMP_temperature;BMP_pressure;BME280_temperature;BME280_humidity;BME280_pressure;Samples;Min_cycle;Max_cycle;Signal;HPM_P1;HPM_P2
2021/12/10 00:00:16;;;;;;;;;;;0.00;93.10;;;;;;6227914;28;19937;-59
2021/12/10 00:03:19;;;;;;;;;;;0.00;93.20;;;;;;6261413;28;19921;-59
2021/12/10 00:06:19;;;;;;;;;;;0.00;93.20;;;;;;6267927;28;19909;-59
2021/12/10 00:09:22;;;;;;;;;;;0.00;93.20;;;;;;6252781;28;19909;-58
2021/12/10 00:12:29;;;;;;;;;;;0.00;93.20;;;;;;6236600;28;19909;-59
2021/12/10 00:15:31;;;;;;;;;;;0.00;93.20;;;;;;6235748;28;19909;-59
2021/12/10 00:18:35;;;;;;;;;;;0.00;93.40;;;;;;6219578;28;19913;-58
2021/12/10 00:21:36;;;;;;;;;;;0.00;93.30;;;;;;6218987;28;19988;-55
2021/12/10 00:24:38;;;;;;;;;;;0.10;93.40;;;;;;6228914;28;19910;-53
2021/12/10 00:27:39;;;;;;;;;;;0.10;93.40;;;;;;6211169;28;19913;-56
2021/12/10 00:30:54;;;;;;;;;;;0.10;93.00;;;;;;6235630;28;19978;-52
2021/12/10 00:33:58;;;;;;;;;;;0.20;92.70;;;;;;6235368;28;19916;-54
2021/12/10 00:37:00;;;;;;;;;;;0.10;92.70;;;;;;6210480;28;19913;-55
2021/12/10 00:40:03;;;;;;;;;;;0.10;92.50;;;;;;6186734;28;19910;-56
2021/12/10 00:43:04;;;;;;;;;;;0.00;92.50;;;;;;6202694;28;19913;-56
2021/12/10 00:46:05;;;;;;;;;;;0.10;92.10;;;;;;6189625;28;19944;-55
2021/12/10 00:49:07;;;;;;;;;;;0.00;92.20;;;;;;6227736;28;19914;-57
2021/12/10 00:52:09;;;;;;;;;;;0.00;92.30;;;;;;6216513;28;19913;-57
2021/12/10 00:55:10;;;;;;;;;;;0.00;92.10;;;;;;6203078;28;19918;-55
2021/12/10 00:58:11;;;;;;;;;;;0.00;92.10;;;;;;6202198;28;19944;-55
2021/12/10 01:01:15;;;;;;;;;;;0.00;92.20;;;;;;6202210;28;19985;-56
2021/12/10 01:04:21;;;;;;;;;;;0.00;92.40;;;;;;6190311;28;19909;-55
2021/12/10 01:07:23;;;;;;;;;;;0.10;92.30;;;;;;6207562;28;19909;-51
2021/12/10 01:10:26;;;;;;;;;;;0.00;92.10;;;;;;6204021;28;19909;-52
2021/12/10 01:13:32;;;;;;;;;;;0.00;92.20;;;;;;6260318;28;19910;-55
2021/12/10 01:29:20;;;;;;;;;;;0.00;92.30;;;;;;6247970;28;19909;-54
2021/12/10 01:32:20;;;;;;;;;;;0.00;92.30;;;;;;6233994;28;20003;-54
2021/12/10 01:35:29;;;;;;;;;;;0.00;92.30;;;;;;6217262;28;19913;-55
2021/12/10 01:38:31;;;;;;;;;;;0.00;92.30;;;;;;6217733;28;19968;-56
2021/12/10 01:41:36;;;;;;;;;;;0.00;92.40;;;;;;6201991;28;19917;-56
2021/12/10 01:44:42;;;;;;;;;;;0.00;92.30;;;;;;6201594;28;19925;-56
2021/12/10 01:47:44;;;;;;;;;;;0.00;92.30;;;;;;6201667;28;19917;-55
2021/12/10 01:50:46;;;;;;;;;;;-3276.70;92.10;;;;;;6201504;28;19910;-58
2021/12/10 01:53:47;;;;;;;;;;;-3276.70;92.10;;;;;;6201619;28;19913;-56
2021/12/10 01:56:49;;;;;;;;;;;-3276.70;92.00;;;;;;6232709;28;19917;-55
2021/12/10 01:59:50;;;;;;;;;;;-3276.70;92.00;;;;;;6233211;28;19916;-53
2021/12/10 02:02:51;;;;;;;;;;;-3276.70;92.10;;;;;;6233005;28;20004;-57
2021/12/10 02:05:52;;;;;;;;;;;-3276.60;92.00;;;;;;6243382;28;19925;-58
2021/12/10 02:08:53;;;;;;;;;;;-3276.70;92.00;;;;;;6226346;28;19979;-57
2021/12/10 02:11:54;;;;;;;;;;;-3276.70;91.80;;;;;;6225176;28;19909;-56
2021/12/10 02:15:03;;;;;;;;;;;-3276.60;91.30;;;;;;6224753;28;19960;-54
2021/12/10 02:18:04;;;;;;;;;;;-3276.50;91.70;;;;;;6209327;28;19944;-52
2021/12/10 02:21:07;;;;;;;;;;;-3276.50;91.90;;;;;;6224352;28;19925;-55
2021/12/10 02:24:09;;;;;;;;;;;-3276.60;91.90;;;;;;6225022;28;19909;-55
2021/12/10 02:27:10;;;;;;;;;;;-3276.60;91.90;;;;;;6215032;28;19909;-54
2021/12/10 02:30:11;;;;;;;;;;;-3276.60;92.00;;;;;;6200776;28;20025;-56
2021/12/10 02:33:12;;;;;;;;;;;-3276.60;91.70;;;;;;6216656;28;19920;-54
2021/12/10 02:36:13;;;;;;;;;;;-3276.50;91.70;;;;;;6222391;28;19909;-57
2021/12/10 02:39:16;;;;;;;;;;;-3276.50;91.80;;;;;;6216335;28;19951;-56
2021/12/10 02:42:17;;;;;;;;;;;-3276.50;91.80;;;;;;6264945;28;19913;-56
2021/12/10 02:45:19;;;;;;;;;;;-3276.50;91.60;;;;;;6198038;28;19909;-55
2021/12/10 02:48:21;;;;;;;;;;;-3276.40;91.50;;;;;;6184298;28;19909;-56
2021/12/10 02:51:22;;;;;;;;;;;-3276.40;91.30;;;;;;6204711;28;19999;-57
2021/12/10 02:54:33;;;;;;;;;;;-3276.40;91.20;;;;;;6236778;28;19916;-57
2021/12/10 02:57:33;;;;;;;;;;;-3276.30;91.20;;;;;;6198660;28;19928;-55
2021/12/10 03:00:38;;;;;;;;;;;-3276.30;91.20;;;;;;6239156;28;19913;-57
2021/12/10 03:03:40;;;;;;;;;;;-3276.30;91.20;;;;;;6237097;28;19943;-56
2021/12/10 03:06:44;;;;;;;;;;;-3276.20;91.20;;;;;;6261366;28;19932;-52
2021/12/10 03:09:46;;;;;;;;;;;-3276.20;91.50;;;;;;6200458;28;19926;-54
2021/12/10 03:12:47;;;;;;;;;;;-3276.20;91.40;;;;;;6217971;28;19924;-57
2021/12/10 03:15:50;;;;;;;;;;;-3276.20;91.70;;;;;;6207508;28;19931;-53
2021/12/10 03:18:51;;;;;;;;;;;-3276.20;91.70;;;;;;6231680;28;19938;-54
2021/12/10 03:21:52;;;;;;;;;;;-3276.20;91.50;;;;;;6191897;28;20006;-56
2021/12/10 03:24:53;;;;;;;;;;;-3276.20;91.20;;;;;;6223571;28;19925;-52
2021/12/10 03:27:53;;;;;;;;;;;-3276.30;91.30;;;;;;6239787;28;19933;-57
2021/12/10 03:30:55;;;;;;;;;;;-3276.30;91.40;;;;;;6229571;28;19952;-54
2021/12/10 03:33:56;;;;;;;;;;;-3276.30;91.30;;;;;;6209854;28;19914;-51
2021/12/10 03:36:58;;;;;;;;;;;-3276.30;91.40;;;;;;6243335;28;19916;-54
2021/12/10 03:39:59;;;;;;;;;;;-3276.30;91.40;;;;;;6265086;28;19909;-56
2021/12/10 03:43:00;;;;;;;;;;;-3276.30;91.40;;;;;;6246852;28;19967;-51
2021/12/10 03:46:01;;;;;;;;;;;-3276.20;91.30;;;;;;6207349;28;19909;-54
2021/12/10 03:49:03;;;;;;;;;;;-3276.20;91.40;;;;;;6223673;28;19948;-53
2021/12/10 03:52:05;;;;;;;;;;;-3276.20;91.40;;;;;;6223756;28;19973;-52
2021/12/10 03:55:06;;;;;;;;;;;-3276.20;91.10;;;;;;6203132;28;20008;-54
2021/12/10 03:58:07;;;;;;;;;;;-3276.20;91.20;;;;;;6193737;28;19917;-55
2021/12/10 04:01:09;;;;;;;;;;;-3276.20;91.10;;;;;;6194370;28;19925;-54
2021/12/10 04:04:13;;;;;;;;;;;-3276.20;90.90;;;;;;6187597;28;19939;-53
2021/12/10 04:07:16;;;;;;;;;;;-3276.10;91.10;;;;;;6230605;28;19917;-55
2021/12/10 04:10:17;;;;;;;;;;;-3276.00;90.70;;;;;;6232886;28;19916;-55
2021/12/10 04:13:18;;;;;;;;;;;-3276.10;91.10;;;;;;6230407;28;19913;-54
2021/12/10 04:16:20;;;;;;;;;;;-3276.10;91.20;;;;;;6234608;28;20004;-50
2021/12/10 04:19:22;;;;;;;;;;;-3276.10;91.20;;;;;;6215505;28;19909;-51
2021/12/10 04:22:24;;;;;;;;;;;-3276.10;91.00;;;;;;6240381;28;19917;-52
2021/12/10 04:25:25;;;;;;;;;;;-3276.10;90.90;;;;;;6234978;28;19936;-52
2021/12/10 04:28:26;;;;;;;;;;;-3276.00;90.70;;;;;;6233529;28;19909;-51
2021/12/10 04:31:27;;;;;;;;;;;-3276.10;90.80;;;;;;6213674;28;19933;-53
2021/12/10 04:34:28;;;;;;;;;;;-3276.00;91.10;;;;;;6231470;28;19917;-52
2021/12/10 04:37:29;;;;;;;;;;;-3276.00;91.10;;;;;;6224192;28;19913;-52
2021/12/10 04:40:30;;;;;;;;;;;-3276.20;90.80;;;;;;6210782;28;20132;-52
2021/12/10 04:43:32;;;;;;;;;;;-3276.10;90.80;;;;;;6239277;28;19961;-49
2021/12/10 04:46:33;;;;;;;;;;;-3276.00;90.90;;;;;;6213274;28;19920;-53
2021/12/10 04:49:33;;;;;;;;;;;-3276.00;91.00;;;;;;6227405;28;19955;-56
2021/12/10 04:52:34;;;;;;;;;;;-3276.10;91.00;;;;;;6210820;28;19930;-56
2021/12/10 04:55:35;;;;;;;;;;;-3276.10;91.30;;;;;;6210719;28;19929;-53
2021/12/10 04:58:36;;;;;;;;;;;-3276.10;90.90;;;;;;6211427;28;19961;-52
2021/12/10 05:01:37;;;;;;;;;;;-3276.00;90.70;;;;;;6229283;28;19956;-54
2021/12/10 05:04:38;;;;;;;;;;;-3275.90;91.10;;;;;;6209845;28;19921;-51
2021/12/10 05:07:39;;;;;;;;;;;-3275.90;91.20;;;;;;6199012;28;19928;-55
2021/12/10 05:10:40;;;;;;;;;;;-3275.90;91.40;;;;;;6212556;28;19926;-59
2021/12/10 05:13:42;;;;;;;;;;;-3275.80;91.50;;;;;;6241170;28;19955;-55
2021/12/10 05:16:45;;;;;;;;;;;-3275.80;91.70;;;;;;6209697;28;19926;-52
2021/12/10 05:19:47;;;;;;;;;;;-3275.80;91.70;;;;;;6215378;28;19973;-56
2021/12/10 05:22:48;;;;;;;;;;;-3275.70;91.80;;;;;;6226105;28;19995;-56
2021/12/10 05:25:49;;;;;;;;;;;-3275.70;91.70;;;;;;6230390;28;19929;-56
2021/12/10 05:28:50;;;;;;;;;;;-3275.60;91.60;;;;;;6229258;28;19933;-52
2021/12/10 05:31:51;;;;;;;;;;;-3275.60;91.30;;;;;;6214451;28;19932;-55
2021/12/10 05:34:54;;;;;;;;;;;-3275.50;91.70;;;;;;6228079;28;19940;-58
2021/12/10 05:37:55;;;;;;;;;;;-3275.40;91.40;;;;;;6216936;28;19934;-56
2021/12/10 05:40:56;;;;;;;;;;;-3275.50;92.00;;;;;;6215695;28;19947;-56
2021/12/10 05:43:56;;;;;;;;;;;-3275.50;92.00;;;;;;6244210;28;19951;-55
2021/12/10 05:46:59;;;;;;;;;;;-3275.40;92.00;;;;;;6251284;28;19922;-52
2021/12/10 05:50:00;;;;;;;;;;;-3275.40;92.00;;;;;;6250622;28;19940;-56
2021/12/10 05:53:01;;;;;;;;;;;-3275.50;91.80;;;;;;6230285;28;19936;-54
2021/12/10 05:56:01;;;;;;;;;;;-3275.40;91.60;;;;;;6233711;28;19927;-53
2021/12/10 05:59:03;;;;;;;;;;;-3275.40;91.80;;;;;;6211236;28;19994;-54
2021/12/10 06:02:03;;;;;;;;;;;-3275.40;91.80;;;;;;6228693;28;20039;-56
2021/12/10 06:05:05;;;;;;;;;;;-3275.30;91.90;;;;;;6213650;28;19930;-56
2021/12/10 06:08:05;;;;;;;;;;;-3275.40;92.10;;;;;;6216256;28;19931;-54
2021/12/10 06:11:06;;;;;;;;;;;-3275.40;92.20;;;;;;6230802;28;19929;-52
2021/12/10 06:14:07;;;;;;;;;;;-3275.40;92.10;;;;;;6229922;28;19956;-55
2021/12/10 06:17:08;;;;;;;;;;;-3275.50;92.10;;;;;;6214728;28;20005;-55
2021/12/10 06:20:10;;;;;;;;;;;-3275.50;92.10;;;;;;6233122;28;19928;-52
2021/12/10 06:23:11;;;;;;;;;;;-3275.50;91.50;;;;;;6218606;28;19952;-55
2021/12/10 06:26:12;;;;;;;;;;;-3275.50;91.50;;;;;;6223463;28;19925;-56
2021/12/10 06:29:12;;;;;;;;;;;-3275.40;91.50;;;;;;6228976;28;19929;-54
2021/12/10 06:32:13;;;;;;;;;;;-3275.40;91.60;;;;;;6242022;28;19926;-57
2021/12/10 06:35:14;;;;;;;;;;;-3275.50;91.50;;;;;;6202226;28;19925;-56
2021/12/10 06:38:15;;;;;;;;;;;-3275.50;91.20;;;;;;6213126;28;19923;-55
2021/12/10 06:41:16;;;;;;;;;;;-3275.50;91.00;;;;;;6208082;28;19985;-55
2021/12/10 06:44:17;;;;;;;;;;;-3275.50;91.20;;;;;;6208487;28;19970;-53
2021/12/10 06:47:18;;;;;;;;;;;-3275.40;91.30;;;;;;6207698;28;19925;-55
2021/12/10 06:50:21;;;;;;;;;;;-3275.50;91.30;;;;;;6228903;28;19969;-55
2021/12/10 06:53:24;;;;;;;;;;;-3275.40;91.00;;;;;;6207989;28;19921;-58
2021/12/10 06:56:25;;;;;;;;;;;-3275.40;90.90;;;;;;6213009;28;19931;-57
2021/12/10 06:59:26;;;;;;;;;;;-3275.30;91.10;;;;;;6210436;28;19980;-56
2021/12/10 07:02:27;;;;;;;;;;;-3275.30;91.20;;;;;;6192311;28;19965;-62
2021/12/10 07:05:28;;;;;;;;;;;-3275.20;91.40;;;;;;6199984;28;19961;-59
2021/12/10 07:08:30;;;;;;;;;;;-3275.20;91.40;;;;;;6245531;28;20007;-58
2021/12/10 07:11:31;;;;;;;;;;;-3275.20;91.20;;;;;;6205346;28;19929;-57
2021/12/10 07:14:32;;;;;;;;;;;-3275.20;91.40;;;;;;6203504;28;19934;-58
2021/12/10 07:17:33;;;;;;;;;;;-3275.30;91.40;;;;;;6241139;28;19980;-57
2021/12/10 07:20:34;;;;;;;;;;;-3275.30;91.20;;;;;;6248533;28;19982;-58
2021/12/10 07:23:37;;;;;;;;;;;-3275.30;91.00;;;;;;6189283;28;20000;-58
2021/12/10 07:26:38;;;;;;;;;;;-3275.30;91.00;;;;;;6201795;28;19935;-59
2021/12/10 07:29:39;;;;;;;;;;;-3275.30;90.90;;;;;;6232098;28;19916;-60
2021/12/10 07:32:40;;;;;;;;;;;-3275.40;90.20;;;;;;6228297;28;19916;-59
2021/12/10 07:35:41;;;;;;;;;;;-3275.50;89.90;;;;;;6232466;28;19913;-57
2021/12/10 07:38:42;;;;;;;;;;;-3275.70;90.20;;;;;;6253076;28;19949;-60
2021/12/10 07:41:43;;;;;;;;;;;-3275.70;89.80;;;;;;6234775;28;19967;-60
2021/12/10 07:44:43;;;;;;;;;;;-3275.60;89.90;;;;;;6239694;28;19909;-57
2021/12/10 07:47:46;;;;;;;;;;;-3275.70;90.10;;;;;;6228307;28;19952;-58
2021/12/10 07:50:53;;;;;;;;;;;-3275.60;89.90;;;;;;6228503;28;19909;-58
2021/12/10 07:53:57;;;;;;;;;;;-3275.70;90.00;;;;;;6236179;28;19946;-59
2021/12/10 07:56:58;;;;;;;;;;;-3275.80;89.90;;;;;;6226777;28;19953;-59
2021/12/10 07:59:59;;;;;;;;;;;-3275.80;89.90;;;;;;6219675;28;19976;-57
2021/12/10 08:03:00;;;;;;;;;;;-3275.90;89.40;;;;;;6211807;28;20012;-59
2021/12/10 08:06:01;;;;;;;;;;;-3275.90;88.60;;;;;;6243873;28;19995;-60
2021/12/10 08:09:04;;;;;;;;;;;-3275.80;88.80;;;;;;6227915;28;19917;-59
2021/12/10 08:12:05;;;;;;;;;;;-3275.80;89.30;;;;;;6234703;28;19909;-59
2021/12/10 08:15:07;;;;;;;;;;;-3275.70;89.40;;;;;;6231583;28;19920;-60
2021/12/10 08:18:08;;;;;;;;;;;-3275.70;89.60;;;;;;6238812;28;19952;-59
2021/12/10 08:21:08;;;;;;;;;;;-3275.70;89.40;;;;;;6225507;28;19939;-54
2021/12/10 08:24:09;;;;;;;;;;;-3275.80;88.70;;;;;;6249914;28;20007;-60
2021/12/10 08:27:10;;;;;;;;;;;-3275.90;89.10;;;;;;6245285;28;19932;-59
2021/12/10 08:30:12;;;;;;;;;;;-3275.70;88.70;;;;;;6243435;28;19919;-57
2021/12/10 08:33:14;;;;;;;;;;;-3275.70;89.40;;;;;;6224669;28;19925;-63
2021/12/10 08:36:16;;;;;;;;;;;-3275.70;89.10;;;;;;6234107;28;19913;-58
2021/12/10 08:39:16;;;;;;;;;;;-3275.60;89.60;;;;;;6216592;28;19940;-58
2021/12/10 08:42:17;;;;;;;;;;;-3275.60;89.90;;;;;;6186760;28;19924;-59
2021/12/10 08:45:19;;;;;;;;;;;-3275.60;89.60;;;;;;6234181;28;19921;-58
2021/12/10 08:48:20;;;;;;;;;;;-3275.60;89.80;;;;;;6243627;28;19916;-58
2021/12/10 08:51:23;;;;;;;;;;;-3275.60;89.40;;;;;;6220142;28;19913;-59
2021/12/10 08:54:26;;;;;;;;;;;-3275.60;89.60;;;;;;6218455;28;19909;-57
2021/12/10 08:57:26;;;;;;;;;;;-3275.50;89.80;;;;;;6210556;28;19918;-56
2021/12/10 09:00:27;;;;;;;;;;;-3275.50;89.70;;;;;;6260393;28;19917;-58
2021/12/10 09:03:28;;;;;;;;;;;-3275.60;90.10;;;;;;6242346;28;19921;-58
2021/12/10 09:06:30;;;;;;;;;;;-3275.70;89.70;;;;;;6255804;28;19913;-57
2021/12/10 09:09:32;;;;;;;;;;;-3275.70;89.20;;;;;;6205375;28;19928;-59
2021/12/10 09:12:33;;;;;;;;;;;-3275.60;89.40;;;;;;6209621;28;19916;-59
2021/12/10 09:15:33;;;;;;;;;;;-3275.70;89.00;;;;;;6196455;28;19909;-59
2021/12/10 09:18:38;;;;;;;;;;;-3275.70;88.30;;;;;;6229512;28;19914;-57
2021/12/10 09:21:40;;;;;;;;;;;-3275.70;88.50;;;;;;6246989;28;19924;-58
2021/12/10 09:24:42;;;;;;;;;;;-3275.70;88.70;;;;;;6234822;28;19913;-58
2021/12/10 09:27:43;;;;;;;;;;;-3275.70;88.70;;;;;;6225935;28;19920;-58
2021/12/10 09:30:45;;;;;;;;;;;-3275.80;88.70;;;;;;6217888;28;19913;-58
2021/12/10 09:33:46;;;;;;;;;;;-3275.80;88.60;;;;;;6210042;28;19964;-58
2021/12/10 09:36:47;;;;;;;;;;;-3275.90;88.30;;;;;;6234387;28;19913;-59
2021/12/10 09:39:49;;;;;;;;;;;-3275.90;88.00;;;;;;6228860;28;19920;-60
2021/12/10 09:42:50;;;;;;;;;;;-3275.90;88.30;;;;;;6225348;28;19924;-57
2021/12/10 09:45:52;;;;;;;;;;;-3276.00;87.60;;;;;;6208739;28;19909;-56
2021/12/10 09:48:52;;;;;;;;;;;-3276.00;87.80;;;;;;6206445;28;19959;-57
2021/12/10 09:51:55;;;;;;;;;;;-3276.00;88.00;;;;;;6241896;28;19909;-59
2021/12/10 09:54:56;;;;;;;;;;;-3276.10;87.90;;;;;;6209141;28;19937;-63
2021/12/10 09:57:57;;;;;;;;;;;-3276.00;88.10;;;;;;6223103;28;19963;-60
2021/12/10 10:01:00;;;;;;;;;;;-3276.10;88.30;;;;;;6225360;28;19961;-60
2021/12/10 10:04:02;;;;;;;;;;;-3276.20;88.40;;;;;;6225364;28;19956;-60
2021/12/10 10:07:10;;;;;;;;;;;-3276.30;87.90;;;;;;6233487;28;19916;-58
2021/12/10 10:10:14;;;;;;;;;;;-3276.40;87.90;;;;;;6196885;28;19909;-60
2021/12/10 10:13:16;;;;;;;;;;;-3276.40;87.80;;;;;;6228918;28;19920;-60
2021/12/10 10:16:17;;;;;;;;;;;-3276.40;87.90;;;;;;6189655;28;19956;-60
2021/12/10 10:19:18;;;;;;;;;;;-3276.40;87.90;;;;;;6212698;28;19948;-58
2021/12/10 10:22:21;;;;;;;;;;;-3276.50;88.10;;;;;;6217157;28;19923;-58
2021/12/10 10:25:23;;;;;;;;;;;-3276.60;88.00;;;;;;6226104;28;19948;-58
2021/12/10 10:28:24;;;;;;;;;;;-3276.50;87.60;;;;;;6233062;28;19980;-58
2021/12/10 10:31:24;;;;;;;;;;;-3276.50;87.70;;;;;;6207735;28;19914;-58
2021/12/10 10:34:27;;;;;;;;;;;-3276.50;88.30;;;;;;6211930;28;19912;-59
2021/12/10 10:37:32;;;;;;;;;;;-3276.50;88.30;;;;;;6230690;28;19909;-56
2021/12/10 10:40:35;;;;;;;;;;;-3276.50;88.40;;;;;;6219130;28;19909;-58
2021/12/10 10:43:36;;;;;;;;;;;-3276.50;88.50;;;;;;6230747;28;19960;-58
2021/12/10 10:46:37;;;;;;;;;;;-3276.40;88.30;;;;;;6200038;28;19979;-57
2021/12/10 10:49:46;;;;;;;;;;;-3276.40;88.20;;;;;;6211487;28;19917;-55
2021/12/10 10:52:48;;;;;;;;;;;-3276.40;88.30;;;;;;6238405;28;19909;-59
2021/12/10 10:55:57;;;;;;;;;;;-3276.40;88.10;;;;;;6214283;28;19956;-58
2021/12/10 10:59:01;;;;;;;;;;;-3276.40;88.80;;;;;;6207902;28;19918;-59
2021/12/10 11:02:07;;;;;;;;;;;-3276.40;88.90;;;;;;6223596;28;19921;-58
2021/12/10 11:05:11;;;;;;;;;;;-3276.30;89.10;;;;;;6241375;28;19920;-60
2021/12/10 11:08:11;;;;;;;;;;;-3276.40;89.10;;;;;;6241184;28;19921;-58
2021/12/10 11:11:14;;;;;;;;;;;-3276.40;88.80;;;;;;6245500;28;19913;-59
2021/12/10 11:14:21;;;;;;;;;;;-3276.40;89.40;;;;;;6261430;28;19959;-58
2021/12/10 11:17:51;;;;;;;;;;;-3276.40;89.00;;;;;;6229468;28;19909;-57
2021/12/10 11:20:51;;;;;;;;;;;-3276.50;89.30;;;;;;6214207;28;19908;-59
2021/12/10 11:24:04;;;;;;;;;;;-3276.50;89.30;;;;;;6228337;28;19937;-63
2021/12/10 11:27:08;;;;;;;;;;;-3276.50;89.40;;;;;;6236376;28;19916;-61
2021/12/10 11:30:10;;;;;;;;;;;-3276.50;89.30;;;;;;6232445;28;19975;-60
2021/12/10 11:33:15;;;;;;;;;;;-3276.50;89.40;;;;;;6221259;28;19917;-59
2021/12/10 11:36:23;;;;;;;;;;;-3276.60;89.40;;;;;;6215200;28;19909;-60
2021/12/10 11:39:39;;;;;;;;;;;-3276.70;89.10;;;;;;6223337;28;19909;-60
2021/12/10 11:42:47;;;;;;;;;;;0.00;89.30;;;;;;6221624;28;19956;-59
2021/12/10 11:46:02;;;;;;;;;;;0.00;89.00;;;;;;6221033;28;19909;-60
2021/12/10 11:49:07;;;;;;;;;;;0.10;89.10;;;;;;6219238;28;19909;-61
2021/12/10 11:52:10;;;;;;;;;;;0.30;88.80;;;;;;6238793;28;19949;-61
2021/12/10 11:55:10;;;;;;;;;;;0.40;88.30;;;;;;6219739;28;19915;-61
2021/12/10 11:58:14;;;;;;;;;;;0.40;87.30;;;;;;6235893;28;19925;-61
2021/12/10 12:01:17;;;;;;;;;;;0.40;87.70;;;;;;6222434;28;19913;-59
2021/12/10 12:04:20;;;;;;;;;;;0.50;87.80;;;;;;6235544;28;19915;-61
2021/12/10 12:07:30;;;;;;;;;;;0.40;87.70;;;;;;6229317;28;19909;-61
2021/12/10 12:10:37;;;;;;;;;;;0.50;87.70;;;;;;6236465;28;19968;-61
2021/12/10 12:13:43;;;;;;;;;;;0.50;87.50;;;;;;6219650;28;19959;-60
2021/12/10 12:16:44;;;;;;;;;;;0.50;86.70;;;;;;6233205;28;19991;-59
2021/12/10 12:19:45;;;;;;;;;;;0.50;86.70;;;;;;6210829;28;19914;-59
2021/12/10 12:26:15;;;;;;;;;;;0.40;87.60;;;;;;6256560;28;19992;-59
2021/12/10 12:29:17;;;;;;;;;;;0.40;87.70;;;;;;6227466;28;19909;-59
2021/12/10 12:32:25;;;;;;;;;;;0.40;87.90;;;;;;6234108;28;19909;-59
2021/12/10 12:35:30;;;;;;;;;;;0.40;88.00;;;;;;6234739;28;19909;-59
2021/12/10 12:38:31;;;;;;;;;;;0.40;87.80;;;;;;6240595;28;19916;-59
2021/12/10 12:41:37;;;;;;;;;;;0.40;88.10;;;;;;6227719;28;19937;-59
2021/12/10 12:44:41;;;;;;;;;;;0.40;87.30;;;;;;6227593;28;19909;-59
2021/12/10 12:47:44;;;;;;;;;;;0.40;87.40;;;;;;6251589;28;19917;-59
2021/12/10 12:50:45;;;;;;;;;;;0.30;87.60;;;;;;6235076;28;19909;-59
2021/12/10 12:53:47;;;;;;;;;;;0.30;88.00;;;;;;6201637;28;19916;-58
2021/12/10 12:56:51;;;;;;;;;;;0.40;87.90;;;;;;6186409;28;19949;-59
2021/12/10 12:59:52;;;;;;;;;;;0.40;87.80;;;;;;6203190;28;19910;-57
2021/12/10 13:02:56;;;;;;;;;;;0.40;87.60;;;;;;6232058;28;19921;-59
2021/12/10 13:05:59;;;;;;;;;;;0.50;87.80;;;;;;6243326;28;19937;-59
2021/12/10 13:09:00;;;;;;;;;;;0.50;87.80;;;;;;6227276;28;19910;-60
2021/12/10 13:12:09;;;;;;;;;;;0.50;87.60;;;;;;6224024;28;19913;-59
2021/12/10 13:15:15;;;;;;;;;;;0.40;87.70;;;;;;6225070;28;19909;-59
2021/12/10 13:18:18;;;;;;;;;;;0.40;88.00;;;;;;6226299;28;19931;-57
2021/12/10 13:21:19;;;;;;;;;;;0.50;87.20;;;;;;6229738;28;19912;-59
2021/12/10 13:24:19;;;;;;;;;;;0.40;87.40;;;;;;6204841;28;19913;-59
2021/12/10 13:27:21;;;;;;;;;;;0.50;87.80;;;;;;6234300;28;19912;-60
2021/12/10 13:30:34;;;;;;;;;;;0.50;88.20;;;;;;6198978;28;19913;-60
2021/12/10 13:33:36;;;;;;;;;;;0.60;87.90;;;;;;6234012;28;19916;-59
2021/12/10 13:36:37;;;;;;;;;;;0.50;88.10;;;;;;6234037;28;20001;-62
2021/12/10 13:39:42;;;;;;;;;;;0.60;88.10;;;;;;6234712;28;19913;-59
2021/12/10 13:42:44;;;;;;;;;;;0.60;88.10;;;;;;6219444;28;19917;-60
2021/12/10 13:45:48;;;;;;;;;;;0.60;87.60;;;;;;6240829;28;19945;-62
2021/12/10 13:48:56;;;;;;;;;;;0.60;88.00;;;;;;6209912;28;19964;-61
2021/12/10 13:51:56;;;;;;;;;;;0.80;87.00;;;;;;6209154;28;19909;-58
2021/12/10 13:54:57;;;;;;;;;;;0.70;87.00;;;;;;6225903;28;19913;-53
2021/12/10 13:58:07;;;;;;;;;;;0.70;86.70;;;;;;6216290;28;19925;-58
2021/12/10 14:01:21;;;;;;;;;;;0.60;87.20;;;;;;6239327;28;19909;-59
2021/12/10 14:04:26;;;;;;;;;;;0.50;87.60;;;;;;6225235;28;19944;-58
2021/12/10 14:07:29;;;;;;;;;;;0.50;87.80;;;;;;6208887;28;19909;-57
2021/12/10 14:10:32;;;;;;;;;;;0.40;87.70;;;;;;6222124;28;19935;-60
2021/12/10 14:13:33;;;;;;;;;;;0.40;87.90;;;;;;6203462;28;19924;-57
2021/12/10 14:17:03;;;;;;;;;;;0.40;87.80;;;;;;6208819;28;19909;-58
2021/12/10 14:20:12;;;;;;;;;;;0.30;88.00;;;;;;6207214;28;19910;-58
2021/12/10 14:23:21;;;;;;;;;;;0.30;88.00;;;;;;6227515;28;19918;-58
2021/12/10 14:26:24;;;;;;;;;;;0.30;87.90;;;;;;6207914;28;19916;-58
2021/12/10 14:29:24;;;;;;;;;;;0.40;88.20;;;;;;6229334;28;20028;-58
2021/12/10 14:32:27;;;;;;;;;;;0.30;88.00;;;;;;6215659;28;19913;-58
2021/12/10 14:35:28;;;;;;;;;;;0.40;86.50;;;;;;6222804;28;19916;-58
2021/12/10 14:38:35;;;;;;;;;;;0.40;87.20;;;;;;6225295;28;19913;-58
2021/12/10 14:41:40;;;;;;;;;;;0.40;87.60;;;;;;6241294;28;19913;-57
2021/12/10 14:44:41;;;;;;;;;;;0.30;88.20;;;;;;6232326;28;19999;-58
2021/12/10 14:47:42;;;;;;;;;;;0.30;88.80;;;;;;6198617;28;19952;-56
2021/12/10 14:51:01;;;;;;;;;;;0.20;89.20;;;;;;6200438;28;19920;-58
2021/12/10 14:54:07;;;;;;;;;;;0.20;89.40;;;;;;6203816;28;20051;-57
2021/12/10 14:57:08;;;;;;;;;;;0.10;89.70;;;;;;6224995;28;20012;-56
2021/12/10 15:00:27;;;;;;;;;;;0.10;89.90;;;;;;6225667;28;19913;-58
2021/12/10 15:03:45;;;;;;;;;;;0.10;89.90;;;;;;6240475;28;19932;-57
2021/12/10 15:06:57;;;;;;;;;;;0.00;90.00;;;;;;6220684;28;19948;-59
2021/12/10 15:10:00;;;;;;;;;;;0.10;90.10;;;;;;6225055;28;19960;-59
2021/12/10 15:13:19;;;;;;;;;;;0.00;90.10;;;;;;6238426;28;19976;-59
2021/12/10 15:16:19;;;;;;;;;;;0.10;89.80;;;;;;6248130;28;19916;-59
2021/12/10 15:19:27;;;;;;;;;;;0.10;89.20;;;;;;6235400;28;19910;-59
2021/12/10 15:22:36;;;;;;;;;;;0.10;89.50;;;;;;6239634;28;19959;-59
2021/12/10 15:25:37;;;;;;;;;;;0.00;89.80;;;;;;6210251;28;19948;-59
2021/12/10 15:28:39;;;;;;;;;;;0.00;90.00;;;;;;6207892;28;19913;-59
2021/12/10 15:31:39;;;;;;;;;;;0.00;90.40;;;;;;6221179;28;19939;-59
2021/12/10 15:34:43;;;;;;;;;;;0.00;90.60;;;;;;6225776;28;19917;-59
2021/12/10 15:37:52;;;;;;;;;;;0.00;90.50;;;;;;6221782;28;19920;-59
2021/12/10 15:41:02;;;;;;;;;;;0.00;90.70;;;;;;6227799;28;19915;-59
2021/12/10 15:44:06;;;;;;;;;;;0.00;90.80;;;;;;6212029;28;20008;-58
2021/12/10 15:47:08;;;;;;;;;;;0.00;90.80;;;;;;6218576;28;20007;-59
2021/12/10 15:50:10;;;;;;;;;;;0.00;91.00;;;;;;6227874;28;19909;-58
2021/12/10 15:53:13;;;;;;;;;;;0.00;91.00;;;;;;6229602;28;19920;-58
2021/12/10 15:56:16;;;;;;;;;;;0.00;91.10;;;;;;6222023;28;19914;-58
2021/12/10 15:59:20;;;;;;;;;;;0.00;91.20;;;;;;6233751;28;19944;-55
2021/12/10 16:02:22;;;;;;;;;;;0.00;91.30;;;;;;6211954;28;20004;-57
2021/12/10 16:05:23;;;;;;;;;;;-3276.70;91.30;;;;;;6210355;28;20008;-54
2021/12/10 16:08:24;;;;;;;;;;;-3276.70;91.40;;;;;;6238288;28;19928;-58
2021/12/10 16:11:26;;;;;;;;;;;0.00;91.50;;;;;;6226095;28;19923;-57
2021/12/10 16:14:29;;;;;;;;;;;0.00;91.50;;;;;;6219831;28;19939;-58
2021/12/10 16:17:30;;;;;;;;;;;-3276.70;91.50;;;;;;6211249;28;19909;-58
2021/12/10 16:20:34;;;;;;;;;;;-3276.70;91.60;;;;;;6211246;28;19920;-58
2021/12/10 16:23:37;;;;;;;;;;;-3276.70;91.60;;;;;;6208878;28;19924;-59
2021/12/10 16:26:41;;;;;;;;;;;0.00;91.30;;;;;;6223421;28;19909;-53
2021/12/10 16:29:44;;;;;;;;;;;0.00;91.30;;;;;;6231577;28;19959;-54
2021/12/10 16:32:47;;;;;;;;;;;-3276.70;91.50;;;;;;6245680;28;19917;-52
2021/12/10 16:35:51;;;;;;;;;;;-3276.70;91.50;;;;;;6246202;28;19909;-51
2021/12/10 16:38:54;;;;;;;;;;;-3276.70;91.60;;;;;;6244154;28;19916;-48
2021/12/10 16:41:56;;;;;;;;;;;-3276.70;91.80;;;;;;6218360;28;19917;-53
2021/12/10 16:44:56;;;;;;;;;;;-3276.70;91.80;;;;;;6261466;28;19916;-51
2021/12/10 16:47:58;;;;;;;;;;;-3276.70;91.90;;;;;;6210270;28;19953;-50
2021/12/10 16:51:01;;;;;;;;;;;0.00;91.30;;;;;;6202743;28;19921;-48
2021/12/10 16:54:04;;;;;;;;;;;0.00;91.40;;;;;;6203234;28;19961;-51
2021/12/10 16:57:11;;;;;;;;;;;0.00;91.70;;;;;;6243133;28;19917;-51
2021/12/10 17:00:19;;;;;;;;;;;0.00;91.80;;;;;;6215456;28;19910;-52
2021/12/10 17:03:22;;;;;;;;;;;0.00;91.90;;;;;;6200754;28;19913;-50
2021/12/10 17:06:24;;;;;;;;;;;0.00;92.10;;;;;;6216754;28;20015;-50
2021/12/10 17:09:25;;;;;;;;;;;0.00;92.10;;;;;;6226876;28;19916;-51
2021/12/10 17:12:28;;;;;;;;;;;0.00;92.20;;;;;;6232893;28;19909;-52
2021/12/10 17:15:29;;;;;;;;;;;0.00;92.20;;;;;;6231064;28;19976;-50
2021/12/10 17:18:30;;;;;;;;;;;0.00;92.30;;;;;;6217766;28;19920;-50
2021/12/10 17:21:33;;;;;;;;;;;0.00;92.40;;;;;;6245595;28;19917;-52
2021/12/10 17:24:40;;;;;;;;;;;0.00;92.20;;;;;;6209823;28;19921;-50
2021/12/10 17:27:41;;;;;;;;;;;0.00;92.30;;;;;;6243585;28;19917;-49
2021/12/10 17:30:45;;;;;;;;;;;0.00;92.30;;;;;;6216900;28;19910;-48
2021/12/10 17:33:49;;;;;;;;;;;0.00;92.20;;;;;;6226102;28;19916;-51
2021/12/10 17:36:52;;;;;;;;;;;0.10;92.20;;;;;;6225369;28;19910;-52